Time;durP1;ratioP1;P1;durP2;ratioP2;P2;SDS_P1;SDS_P2;PMS_P1;PMS_P2;Temp;Humidity;BMP_temperature;BMP_pressure;BME280_temperature;BME280_humidity;BME280_pressure;Samples;Min_cycle;Max_cycle;Signal;HPM_P1;HPM_P2
2021/11/24 07:15:43;;;;;;;;;;;;;;;;;;1941775;72;22632;-71
2021/11/24 07:18:09;;;;;;;;;;;;;;;;;;1878849;75;59304;-70
2021/11/24 07:20:36;;;;;;;;;;;;;;;;;;1813337;76;77625;-70
2021/11/24 07:23:05;;;;;;;;;;;;;;;;;;1712463;79;59828;-70
2021/11/24 07:25:32;;;;;;;;;;;;;;;;;;1730931;80;107679;-66
2021/11/24 07:28:00;;;;;;;16.73;7.40;;;;;;;;;;1651030;81;3945159;-66
2021/11/24 07:30:28;;;;;;;10.83;6.53;;;;;;;;;;1723446;80;406778;-66
2021/11/24 07:32:56;;;;;;;8.03;6.40;;;;;;;;;;1768995;78;506471;-66
2021/11/24 07:35:25;;;;;;;7.27;6.57;;;;;;;;;;1769252;78;504378;-66
2021/11/24 07:37:53;;;;;;;7.37;6.67;;;;;;;;;;1744881;78;506743;-66
2021/11/24 07:40:22;;;;;;;7.83;6.33;;;;;;;;;;1744615;78;504479;-65
2021/11/24 07:42:50;;;;;;;10.13;7.33;;;;;;;;;;1720297;80;504447;-66
2021/11/24 07:45:18;;;;;;;8.43;6.80;;;;;;;;;;1756563;75;504714;-64
2021/11/24 07:47:46;;;;;;;8.20;7.07;;;;;;;;;;1748061;79;504450;-65
2021/11/24 07:50:14;;;;;;;8.13;6.40;;;;;;;;;;1769306;78;506558;-64
2021/11/24 07:52:42;;;;;;;11.00;6.80;;;;;;;;;;1743060;78;504443;-64
2021/11/24 07:55:10;;;;;;;18.23;7.90;;;;;;;;;;1770392;77;506522;-67
2021/11/24 07:57:38;;;;;;;15.27;6.93;;;;;;;;;;1780757;77;501489;-63
2021/11/24 08:00:08;;;;;;;11.83;7.07;;;;;;;;;;1780228;77;506470;-64
2021/11/24 08:02:36;;;;;;;13.80;7.23;;;;;;;;;;1755498;78;506513;-64
2021/11/24 08:05:05;;;;;;;10.63;7.63;;;;;;;;;;1754914;78;506514;-65
2021/11/24 08:10:21;;;;;;;53.53;47.37;;;;;;;;;;1868865;72;709598;-65
2021/11/24 08:12:49;;;;;;;42.57;37.87;;;;;;;;;;1799972;76;508582;-65
2021/11/24 08:15:17;;;;;;;59.60;51.97;;;;;;;;;;1798137;76;506506;-63
2021/11/24 08:17:45;;;;;;;1999.90;999.90;;;;;;;;;;1824422;76;506601;-66
2021/11/24 08:20:14;;;;;;;1999.90;999.90;;;;;;;;;;1803014;76;509923;-65
2021/11/24 08:22:42;;;;;;;538.60;483.10;;;;;;;;;;1787559;76;509612;-67
2021/11/24 08:25:10;;;;;;;354.10;319.63;;;;;;;;;;1788663;76;510698;-67
2021/11/24 08:27:38;;;;;;;322.40;291.60;;;;;;;;;;1776044;76;512798;-67
2021/11/24 08:30:09;;;;;;;278.30;251.67;;;;;;;;;;1776168;76;503382;-67
2021/11/24 08:32:37;;;;;;;255.27;229.87;;;;;;;;;;1829018;76;510689;-67
2021/11/24 08:35:06;;;;;;;215.83;194.87;;;;;;;;;;1777910;76;506514;-66
2021/11/24 08:37:34;;;;;;;216.43;194.13;;;;;;;;;;1777677;76;508633;-67
2021/11/24 08:40:02;;;;;;;195.40;175.40;;;;;;;;;;1802818;76;508583;-66
2021/11/24 08:42:31;;;;;;;182.70;164.50;;;;;;;;;;1777898;76;508587;-66
2021/11/24 08:44:59;;;;;;;166.43;149.40;;;;;;;;;;1777418;76;504485;-66
2021/11/24 08:47:27;;;;;;;178.70;160.67;;;;;;;;;;1829693;76;508617;-67
2021/11/24 08:49:55;;;;;;;183.93;165.63;;;;;;;;;;1828834;76;503413;-66
2021/11/24 08:52:23;;;;;;;168.53;151.47;;;;;;;;;;1777304;76;506534;-66
2021/11/24 08:54:51;;;;;;;165.90;149.17;;;;;;;;;;1834714;76;509180;-67
2021/11/24 08:57:20;;;;;;;163.23;147.20;;;;;;;;;;1835243;76;504372;-66
2021/11/24 08:59:48;;;;;;;160.00;144.50;;;;;;;;;;1829049;76;502411;-67
2021/11/24 09:02:16;;;;;;;150.43;135.23;;;;;;;;;;1778008;76;506530;-67
2021/11/24 09:04:44;;;;;;;146.80;132.43;;;;;;;;;;1829196;76;502361;-66
2021/11/24 09:07:13;;;;;;;137.37;123.47;;;;;;;;;;1778044;76;506508;-67
2021/11/24 09:09:41;;;;;;;137.33;123.27;;;;;;;;;;1764294;78;504449;-66
2021/11/24 09:12:10;;;;;;;134.50;120.80;;;;;;;;;;1787346;78;504705;-67
2021/11/24 09:14:38;;;;;;;128.23;115.53;;;;;;;;;;1780190;77;506454;-66
2021/11/24 09:17:07;;;;;;;123.27;111.20;;;;;;;;;;1807098;76;506466;-67
2021/11/24 09:19:35;;;;;;;125.70;113.07;;;;;;;;;;1808546;75;502335;-67
2021/11/24 09:22:05;;;;;;;122.53;110.27;;;;;;;;;;1806350;76;504715;-66
2021/11/24 09:24:33;;;;;;;118.63;107.07;;;;;;;;;;1805667;76;502331;-67
2021/11/24 09:27:03;;;;;;;114.63;103.33;;;;;;;;;;1805592;76;506493;-67
2021/11/24 09:29:31;;;;;;;112.37;101.27;;;;;;;;;;1787473;76;505470;-67
2021/11/24 09:32:03;;;;;;;108.80;98.07;;;;;;;;;;1806015;76;504410;-67
2021/11/24 09:34:30;;;;;;;104.90;94.30;;;;;;;;;;1780539;76;502334;-66
2021/11/24 09:36:58;;;;;;;103.87;93.33;;;;;;;;;;1807170;76;506520;-66
2021/11/24 09:39:26;;;;;;;103.53;93.30;;;;;;;;;;1779296;77;506465;-66
2021/11/24 09:41:57;;;;;;;102.27;92.37;;;;;;;;;;1779495;77;506516;-66
2021/11/24 09:44:25;;;;;;;103.83;93.80;;;;;;;;;;1786453;78;509106;-66
2021/11/24 09:46:53;;;;;;;98.30;88.67;;;;;;;;;;1805811;76;506532;-67
2021/11/24 09:49:21;;;;;;;96.53;87.23;;;;;;;;;;1808018;76;504444;-66
2021/11/24 09:51:49;;;;;;;97.80;88.00;;;;;;;;;;1807549;76;504401;-66
2021/11/24 09:54:17;;;;;;;97.77;88.47;;;;;;;;;;1807588;76;504398;-66
2021/11/24 09:56:46;;;;;;;98.50;88.70;;;;;;;;;;1805655;76;504381;-66
2021/11/24 09:59:15;;;;;;;91.63;83.03;;;;;;;;;;1779458;77;508584;-67
2021/11/24 10:01:43;;;;;;;93.13;84.10;;;;;;;;;;1779772;77;506562;-67
2021/11/24 10:04:11;;;;;;;90.97;82.20;;;;;;;;;;1807588;76;497119;-68
2021/11/24 10:06:40;;;;;;;90.10;81.20;;;;;;;;;;1779793;77;506497;-66
2021/11/24 10:09:08;;;;;;;91.80;82.67;;;;;;;;;;1807780;75;506504;-66
2021/11/24 10:11:36;;;;;;;90.00;81.20;;;;;;;;;;1776967;76;506731;-66
2021/11/24 10:14:04;;;;;;;86.93;78.30;;;;;;;;;;1776955;76;506496;-66
2021/11/24 10:16:33;;;;;;;88.87;80.50;;;;;;;;;;1829419;76;503430;-66
2021/11/24 10:19:03;;;;;;;86.37;77.97;;;;;;;;;;1834939;76;506510;-66
2021/11/24 10:21:31;;;;;;;87.20;78.70;;;;;;;;;;1828953;76;497185;-66
2021/11/24 10:24:00;;;;;;;82.70;74.70;;;;;;;;;;1777524;76;506522;-66
2021/11/24 10:26:31;;;;;;;84.97;76.53;;;;;;;;;;1777214;76;502345;-66
2021/11/24 10:29:00;;;;;;;82.17;74.30;;;;;;;;;;1804051;76;502340;-66
2021/11/24 10:31:30;;;;;;;82.37;74.43;;;;;;;;;;1829447;76;502588;-66
2021/11/24 10:33:58;;;;;;;78.57;71.17;;;;;;;;;;1776750;76;501276;-66
2021/11/24 10:36:27;;;;;;;81.67;73.60;;;;;;;;;;1829115;76;506552;-66
2021/11/24 10:38:55;;;;;;;81.40;73.70;;;;;;;;;;1828807;76;502320;-65
2021/11/24 10:41:28;;;;;;;77.83;70.23;;;;;;;;;;1776931;76;502372;-66
2021/11/24 10:43:56;;;;;;;82.73;74.80;;;;;;;;;;1777535;76;505430;-67
2021/11/24 10:46:25;;;;;;;78.60;70.73;;;;;;;;;;1828415;76;502371;-66
2021/11/24 10:49:01;;;;;;;75.37;68.33;;;;;;;;;;1776324;76;506755;-65
2021/11/24 10:51:30;;;;;;;76.03;68.80;;;;;;;;;;1802513;76;503405;-66
2021/11/24 10:54:05;;;;;;;74.63;67.20;;;;;;;;;;1776651;76;508818;-66
2021/11/24 10:56:33;;;;;;;70.80;63.70;;;;;;;;;;1802929;76;508597;-66
2021/11/24 10:59:18;;;;;;;68.63;62.07;;;;;;;;;;1828626;76;504468;-66
2021/11/24 11:01:46;;;;;;;76.13;68.40;;;;;;;;;;1776909;76;504667;-66
2021/11/24 11:04:14;;;;;;;70.10;63.33;;;;;;;;;;1777019;76;508629;-66
2021/11/24 11:06:42;;;;;;;68.87;62.27;;;;;;;;;;1834674;76;504435;-66
2021/11/24 11:09:10;;;;;;;70.70;63.70;;;;;;;;;;1777097;76;504695;-66
2021/11/24 11:11:39;;;;;;;69.13;62.23;;;;;;;;;;1777393;76;504687;-66
2021/11/24 11:14:18;;;;;;;70.27;63.20;;;;;;;;;;1829018;76;504430;-66
2021/11/24 11:16:47;;;;;;;70.43;63.57;;;;;;;;;;1834579;76;504403;-67
2021/11/24 11:19:34;;;;;;;66.80;60.20;;;;;;;;;;1802477;76;504444;-67
2021/11/24 11:22:02;;;;;;;62.53;56.63;;;;;;;;;;1801636;76;497129;-67
2021/11/24 11:24:30;;;;;;;65.40;58.90;;;;;;;;;;1802106;76;506711;-67
2021/11/24 11:26:58;;;;;;;65.43;58.83;;;;;;;;;;1801307;76;506818;-67
2021/11/24 11:29:27;;;;;;;62.47;56.57;;;;;;;;;;1802068;76;506494;-67
2021/11/24 11:31:55;;;;;;;64.97;58.50;;;;;;;;;;1802468;76;506499;-67
2021/11/24 11:34:23;;;;;;;62.83;56.63;;;;;;;;;;1828623;76;506495;-67
2021/11/24 11:36:51;;;;;;;61.43;55.43;;;;;;;;;;1802634;76;506498;-67
2021/11/24 11:39:19;;;;;;;63.40;57.47;;;;;;;;;;1802115;76;506553;-67
2021/11/24 11:41:49;;;;;;;63.90;57.50;;;;;;;;;;1834179;76;506515;-67
2021/11/24 11:44:19;;;;;;;62.60;56.60;;;;;;;;;;1834912;76;506755;-67
2021/11/24 11:46:49;;;;;;;60.63;54.77;;;;;;;;;;1834459;75;506653;-67
2021/11/24 11:49:18;;;;;;;59.70;53.80;;;;;;;;;;1802816;76;504489;-67
2021/11/24 11:51:47;;;;;;;58.20;52.60;;;;;;;;;;1803344;76;504660;-67
2021/11/24 11:54:23;;;;;;;58.23;52.47;;;;;;;;;;1830023;76;500283;-67
2021/11/24 11:56:51;;;;;;;60.87;54.97;;;;;;;;;;1803017;76;497089;-68
2021/11/24 11:59:20;;;;;;;60.17;54.33;;;;;;;;;;1829393;76;504373;-68
2021/11/24 13:02:27;;;;;;;8.30;2.23;;;;;;;;;;1850189;74;931738;-9
2021/11/24 13:04:56;;;;;;;6.77;2.30;;;;;;;;;;1839472;75;504383;-12
2021/11/24 13:07:25;;;;;;;6.63;1.90;;;;;;;;;;1859380;75;500467;-12
2021/11/24 13:09:54;;;;;;;12.93;2.47;;;;;;;;;;1861995;75;500482;-14
2021/11/24 13:12:24;;;;;;;14.53;2.60;;;;;;;;;;1862168;75;506459;-15
2021/11/24 13:14:54;;;;;;;8.13;2.17;;;;;;;;;;1862528;75;506697;-13
2021/11/24 13:17:25;;;;;;;11.60;2.27;;;;;;;;;;1862300;75;500219;-14
2021/11/24 13:20:03;;;;;;;12.87;2.30;;;;;;;;;;1861904;75;506461;-13
2021/11/24 13:22:34;;;;;;;7.10;2.03;;;;;;;;;;1863057;75;506457;-14
2021/11/24 13:25:08;;;;;;;7.10;1.77;;;;;;;;;;1863568;75;504374;-14
2021/11/24 13:27:41;;;;;;;5.33;2.00;;;;;;;;;;1863169;75;504390;-14
2021/11/24 13:30:12;;;;;;;9.93;2.63;;;;;;;;;;1860714;73;500258;-16
2021/11/24 13:32:54;;;;;;;16.00;2.53;;;;;;;;;;1830715;73;504426;-57
2021/11/24 13:35:23;;;;;;;10.47;2.20;;;;;;;;;;1829738;73;506470;-52
2021/11/24 13:37:52;;;;;;;8.50;1.70;;;;;;;;;;1828983;76;506709;-52
2021/11/24 13:40:32;;;;;;;11.40;2.00;;;;;;;;;;1828477;76;500464;-55
2021/11/24 13:43:04;;;;;;;16.67;2.57;;;;;;;;;;1829158;76;506444;-49
2021/11/24 13:45:36;;;;;;;8.00;1.97;;;;;;;;;;1829095;76;506452;-51
2021/11/24 13:48:15;;;;;;;14.63;2.53;;;;;;;;;;1828531;76;504387;-45
2021/11/24 13:50:44;;;;;;;11.57;2.00;;;;;;;;;;1829355;76;506466;-51
2021/11/24 13:53:20;;;;;;;17.30;3.20;;;;;;;;;;1832205;73;506470;-57
2021/11/24 13:55:50;;;;;;;28.87;6.10;;;;;;;;;;1831574;73;506475;-62
2021/11/24 14:03:52;;;;;;;15.00;4.50;;;;;;;;;;1859782;73;743276;-52
2021/11/24 14:06:54;;;;;;;16.60;3.60;;;;;;;;;;1845367;74;506512;-47
2021/11/24 14:12:12;;;;;;;26.77;3.80;;;;;;;;;;1809187;75;916950;-50
